createdAt,value
2023-12-18T00:00:15.781Z,24.47
2023-12-18T00:01:20.719Z,24.47
2023-12-18T00:02:24.117Z,24.47
2023-12-18T00:03:27.392Z,24.47
2023-12-18T00:04:30.838Z,24.47
2023-12-18T00:05:35.692Z,24.44
2023-12-18T00:06:39.101Z,24.44
2023-12-18T00:07:42.937Z,24.45
2023-12-18T00:08:47.228Z,24.45
2023-12-18T00:09:50.595Z,24.45
2023-12-18T00:10:53.874Z,24.44
2023-12-18T00:11:58.607Z,24.43
2023-12-18T00:13:03.546Z,24.43
2023-12-18T00:14:06.805Z,24.44
2023-12-18T00:15:10.175Z,24.43
2023-12-18T00:16:13.578Z,24.42
2023-12-18T00:17:16.779Z,24.4
2023-12-18T00:18:20.142Z,24.4
2023-12-18T00:19:24.033Z,24.39
2023-12-18T00:20:27.610Z,24.4
2023-12-18T00:21:30.807Z,24.4
2023-12-18T00:22:34.202Z,24.39
2023-12-18T00:23:37.521Z,24.4
2023-12-18T00:24:40.791Z,24.39
2023-12-18T00:25:44.235Z,24.38
2023-12-18T00:26:47.543Z,24.36
2023-12-18T00:27:50.964Z,24.36
2023-12-18T00:28:55.787Z,24.38
2023-12-18T00:29:59.080Z,24.37
2023-12-18T00:31:02.642Z,24.36
2023-12-18T00:32:06.197Z,24.36
2023-12-18T00:33:09.604Z,24.35
2023-12-18T00:34:13.633Z,24.35
2023-12-18T00:35:18.593Z,24.35
2023-12-18T00:36:23.493Z,24.36
2023-12-18T00:37:26.864Z,24.37
2023-12-18T00:38:30.023Z,24.36
2023-12-18T00:39:33.298Z,24.35
2023-12-18T00:40:36.722Z,24.34
2023-12-18T00:41:41.530Z,24.33
2023-12-18T00:42:44.800Z,24.33
2023-12-18T00:43:49.462Z,24.33
2023-12-18T00:44:55.186Z,24.37
2023-12-18T00:45:58.513Z,24.36
2023-12-18T00:47:01.820Z,24.34
2023-12-18T00:48:05.156Z,24.33
2023-12-18T00:49:08.941Z,24.31
2023-12-18T00:50:12.767Z,24.3
2023-12-18T00:51:16.373Z,24.3
2023-12-18T00:52:19.849Z,24.29
2023-12-18T00:53:23.067Z,24.3
2023-12-18T00:54:26.328Z,24.29
2023-12-18T00:55:29.625Z,24.29
2023-12-18T00:56:33.095Z,24.28
2023-12-18T00:57:36.359Z,24.28
2023-12-18T00:58:39.857Z,24.27
2023-12-18T00:59:43.093Z,24.27
2023-12-18T01:00:47.934Z,24.27
2023-12-18T01:01:51.421Z,24.28
2023-12-18T01:02:54.845Z,24.27
2023-12-18T01:03:59.610Z,24.26
2023-12-18T01:05:03.178Z,24.28
2023-12-18T01:06:06.718Z,24.28
2023-12-18T01:07:10.207Z,24.26
2023-12-18T01:08:14.917Z,24.24
2023-12-18T01:09:18.155Z,24.23
2023-12-18T01:10:21.599Z,24.23
2023-12-18T01:11:24.906Z,24.22
2023-12-18T01:12:28.178Z,24.22
2023-12-18T01:13:31.669Z,24.22
2023-12-18T01:14:34.977Z,24.23
2023-12-18T01:15:38.554Z,24.22
2023-12-18T01:16:41.995Z,24.21
2023-12-18T01:17:45.508Z,24.2
2023-12-18T01:18:50.069Z,24.21
2023-12-18T01:19:54.083Z,24.21
2023-12-18T01:20:57.524Z,24.19
2023-12-18T01:22:00.778Z,24.19
2023-12-18T01:23:04.844Z,24.19
2023-12-18T01:24:08.594Z,24.2
2023-12-18T01:25:13.429Z,24.19
2023-12-18T01:26:16.574Z,24.2
2023-12-18T01:27:21.304Z,24.2
2023-12-18T01:28:24.485Z,24.2
2023-12-18T01:29:27.659Z,24.18
2023-12-18T01:30:30.947Z,24.16
2023-12-18T01:31:34.542Z,24.16
2023-12-18T01:32:38.010Z,24.17
2023-12-18T01:33:41.697Z,24.17
2023-12-18T01:34:46.826Z,24.16
2023-12-18T01:35:50.066Z,24.16
2023-12-18T01:36:53.334Z,24.15
2023-12-18T01:37:58.118Z,24.15
2023-12-18T01:39:01.352Z,24.15
2023-12-18T01:40:06.760Z,24.14
2023-12-18T01:41:10.036Z,24.14
2023-12-18T01:42:13.175Z,24.14
2023-12-18T01:43:18.126Z,24.13
2023-12-18T01:44:21.415Z,24.15
2023-12-18T01:45:24.815Z,24.14
2023-12-18T01:46:28.068Z,24.13
2023-12-18T01:47:31.238Z,24.12
2023-12-18T01:48:36.339Z,24.1
2023-12-18T01:49:41.774Z,24.12
2023-12-18T01:50:45.394Z,24.12
2023-12-18T01:51:48.751Z,24.09
2023-12-18T01:52:52.040Z,24.07
2023-12-18T01:53:55.331Z,24.07
2023-12-18T01:54:58.656Z,24.08
2023-12-18T01:56:01.976Z,24.08
2023-12-18T01:57:05.237Z,24.08
2023-12-18T01:58:08.703Z,24.08
2023-12-18T01:59:11.993Z,24.07
2023-12-18T02:00:15.409Z,24.06
2023-12-18T02:01:18.853Z,24.05
2023-12-18T02:02:22.453Z,24.05
2023-12-18T02:03:25.772Z,24.05
2023-12-18T02:04:29.423Z,24.05
2023-12-18T02:05:32.874Z,24.03
2023-12-18T02:06:36.304Z,24
2023-12-18T02:07:39.968Z,23.99
2023-12-18T02:08:44.252Z,23.94
2023-12-18T02:09:47.532Z,23.95
2023-12-18T02:10:52.824Z,23.96
2023-12-18T02:11:56.042Z,23.93
2023-12-18T02:12:59.279Z,23.94
2023-12-18T02:14:02.480Z,23.95
2023-12-18T02:15:05.873Z,23.97
2023-12-18T02:16:09.323Z,23.99
2023-12-18T02:17:12.588Z,23.97
2023-12-18T02:18:15.970Z,23.95
2023-12-18T02:19:19.784Z,23.96
2023-12-18T02:20:23.246Z,23.94
2023-12-18T02:21:26.608Z,23.94
2023-12-18T02:22:30.125Z,23.95
2023-12-18T02:23:33.433Z,23.94
2023-12-18T02:24:36.719Z,23.93
2023-12-18T02:25:41.447Z,23.93
2023-12-18T02:26:44.729Z,23.94
2023-12-18T02:27:48.076Z,23.94
2023-12-18T02:28:51.489Z,23.92
2023-12-18T02:29:55.031Z,23.9
2023-12-18T02:30:58.533Z,23.88
2023-12-18T02:32:03.790Z,23.89
2023-12-18T02:33:07.221Z,23.9
2023-12-18T02:34:11.313Z,23.87
2023-12-18T02:35:14.872Z,23.89
2023-12-18T02:36:18.667Z,23.89
2023-12-18T02:37:22.485Z,23.89
2023-12-18T02:38:25.820Z,23.91
2023-12-18T02:39:29.136Z,23.89
2023-12-18T02:40:32.520Z,23.84
2023-12-18T02:41:35.886Z,23.83
2023-12-18T02:42:39.433Z,23.83
2023-12-18T02:43:42.887Z,23.79
2023-12-18T02:44:48.136Z,23.79
2023-12-18T02:45:51.362Z,23.8
2023-12-18T02:46:54.752Z,23.81
2023-12-18T02:47:58.063Z,23.83
2023-12-18T02:49:01.657Z,23.78
2023-12-18T02:50:05.190Z,23.76
2023-12-18T02:51:08.486Z,23.78
2023-12-18T02:52:11.923Z,23.75
2023-12-18T02:53:15.127Z,23.76
2023-12-18T02:54:18.455Z,23.78
2023-12-18T02:55:21.949Z,23.75
2023-12-18T02:56:25.248Z,23.74
2023-12-18T02:57:28.438Z,23.76
2023-12-18T02:58:31.907Z,23.73
2023-12-18T02:59:35.341Z,23.69
2023-12-18T03:00:38.705Z,23.69
2023-12-18T03:01:42.165Z,23.72
2023-12-18T03:02:45.448Z,23.71
2023-12-18T03:03:48.851Z,23.69
2023-12-18T03:04:52.461Z,23.7
2023-12-18T03:05:55.915Z,23.74
2023-12-18T03:06:59.124Z,23.73
2023-12-18T03:08:02.376Z,23.69
2023-12-18T03:09:05.747Z,23.67
2023-12-18T03:10:09.213Z,23.69
2023-12-18T03:11:12.394Z,23.69
2023-12-18T03:12:15.614Z,23.69
2023-12-18T03:13:19.087Z,23.68
2023-12-18T03:14:23.851Z,23.67
2023-12-18T03:15:27.019Z,23.67
2023-12-18T03:16:30.447Z,23.67
2023-12-18T03:17:33.731Z,23.66
2023-12-18T03:18:37.140Z,23.65
2023-12-18T03:19:41.201Z,23.65
2023-12-18T03:20:45.078Z,23.65
2023-12-18T03:21:48.431Z,23.64
2023-12-18T03:22:51.805Z,23.65
2023-12-18T03:23:55.130Z,23.64
2023-12-18T03:24:58.453Z,23.64
2023-12-18T03:26:02.766Z,23.64
2023-12-18T03:27:06.036Z,23.63
2023-12-18T03:28:10.856Z,23.62
2023-12-18T03:29:14.121Z,23.61
2023-12-18T03:30:17.475Z,23.61
2023-12-18T03:31:22.643Z,23.61
2023-12-18T03:32:26.040Z,23.61
2023-12-18T03:33:29.375Z,23.63
2023-12-18T03:34:33.215Z,23.61
2023-12-18T03:35:37.145Z,23.61
2023-12-18T03:36:40.426Z,23.63
2023-12-18T03:37:44.112Z,23.62
2023-12-18T03:38:49.393Z,23.59
2023-12-18T03:39:52.600Z,23.58
2023-12-18T03:40:55.883Z,23.57
2023-12-18T03:42:00.776Z,23.56
2023-12-18T03:43:03.985Z,23.55
2023-12-18T03:44:07.302Z,23.56
2023-12-18T03:45:10.650Z,23.53
2023-12-18T03:46:13.977Z,23.54
2023-12-18T03:47:17.286Z,23.57
2023-12-18T03:48:20.635Z,23.53
2023-12-18T03:49:26.244Z,23.56
2023-12-18T03:50:31.221Z,23.56
2023-12-18T03:51:34.427Z,23.56
2023-12-18T03:52:37.779Z,23.54
2023-12-18T03:53:41.006Z,23.54
2023-12-18T03:54:44.401Z,23.52
2023-12-18T03:55:48.104Z,23.52
2023-12-18T03:56:51.445Z,23.52
2023-12-18T03:57:56.384Z,23.51
2023-12-18T03:59:01.358Z,23.55
2023-12-18T04:00:06.108Z,23.55
2023-12-18T04:01:09.639Z,23.54
2023-12-18T04:02:13.031Z,23.52
2023-12-18T04:03:16.449Z,23.52
2023-12-18T04:04:20.109Z,23.49
2023-12-18T04:05:23.962Z,23.5
2023-12-18T04:06:28.904Z,23.49
2023-12-18T04:07:32.413Z,23.48
2023-12-18T04:08:35.625Z,23.47
2023-12-18T04:09:38.995Z,23.47
2023-12-18T04:10:42.753Z,23.47
2023-12-18T04:11:46.064Z,23.45
2023-12-18T04:12:49.416Z,23.46
2023-12-18T04:13:52.883Z,23.46
2023-12-18T04:14:56.161Z,23.47
2023-12-18T04:16:01.486Z,23.46
2023-12-18T04:17:04.697Z,23.44
2023-12-18T04:18:08.095Z,23.43
2023-12-18T04:19:12.089Z,23.44
2023-12-18T04:20:15.504Z,23.44
2023-12-18T04:21:18.964Z,23.42
2023-12-18T04:22:22.474Z,23.43
2023-12-18T04:23:25.670Z,23.43
2023-12-18T04:24:28.882Z,23.46
2023-12-18T04:25:32.318Z,23.43
2023-12-18T04:26:35.608Z,23.42
2023-12-18T04:27:38.984Z,23.42
2023-12-18T04:28:42.873Z,23.43
2023-12-18T04:29:47.673Z,23.45
2023-12-18T04:30:50.956Z,23.45
2023-12-18T04:31:54.594Z,23.43
2023-12-18T04:32:57.907Z,23.43
2023-12-18T04:34:01.604Z,23.41
2023-12-18T04:35:05.324Z,23.41
2023-12-18T04:36:08.669Z,23.38
2023-12-18T04:37:12.071Z,23.39
2023-12-18T04:38:15.624Z,23.37
2023-12-18T04:39:20.480Z,23.37
2023-12-18T04:40:23.719Z,23.38
2023-12-18T04:41:26.925Z,23.38
2023-12-18T04:42:30.202Z,23.39
2023-12-18T04:43:34.118Z,23.37
2023-12-18T04:44:37.723Z,23.36
2023-12-18T04:45:41.150Z,23.36
2023-12-18T04:46:44.540Z,23.36
2023-12-18T04:47:47.905Z,23.37
2023-12-18T04:48:51.565Z,23.37
2023-12-18T04:49:55.424Z,23.35
2023-12-18T04:50:59.058Z,23.36
2023-12-18T04:52:02.416Z,23.35
2023-12-18T04:53:05.902Z,23.36
2023-12-18T04:54:09.249Z,23.35
2023-12-18T04:55:14.087Z,23.36
2023-12-18T04:56:18.839Z,23.39
2023-12-18T04:57:22.211Z,23.4
2023-12-18T04:58:25.706Z,23.35
2023-12-18T04:59:28.959Z,23.32
2023-12-18T05:00:32.272Z,23.33
2023-12-18T05:01:35.841Z,23.33
2023-12-18T05:02:39.495Z,23.33
2023-12-18T05:03:43.859Z,23.36
2023-12-18T05:04:47.512Z,23.36
2023-12-18T05:05:51.230Z,23.35
2023-12-18T05:06:54.648Z,23.34
2023-12-18T05:07:57.905Z,23.36
2023-12-18T05:09:01.147Z,23.33
2023-12-18T05:10:04.440Z,23.31
2023-12-18T05:11:07.689Z,23.32
2023-12-18T05:12:10.865Z,23.3
2023-12-18T05:13:14.125Z,23.27
2023-12-18T05:14:18.981Z,23.27
2023-12-18T05:15:22.327Z,23.3
2023-12-18T05:16:25.598Z,23.33
2023-12-18T05:17:28.897Z,23.31
2023-12-18T05:18:32.367Z,23.3
2023-12-18T05:19:37.519Z,23.29
2023-12-18T05:20:41.057Z,23.29
2023-12-18T05:21:44.336Z,23.29
2023-12-18T05:22:47.888Z,23.28
2023-12-18T05:23:51.188Z,23.27
2023-12-18T05:24:54.446Z,23.27
2023-12-18T05:25:59.218Z,23.28
2023-12-18T05:27:02.476Z,23.32
2023-12-18T05:28:05.707Z,23.3
2023-12-18T05:29:09.047Z,23.3
2023-12-18T05:30:12.494Z,23.28
2023-12-18T05:31:16.198Z,23.29
2023-12-18T05:32:19.986Z,23.27
2023-12-18T05:33:23.461Z,23.27
2023-12-18T05:34:28.639Z,23.29
2023-12-18T05:35:34.424Z,23.3
2023-12-18T05:36:37.759Z,23.3
2023-12-18T05:37:41.220Z,23.28
2023-12-18T05:38:44.587Z,23.28
2023-12-18T05:39:47.928Z,23.26
2023-12-18T05:40:51.411Z,23.26
2023-12-18T05:41:54.772Z,23.26
2023-12-18T05:42:58.110Z,23.26
2023-12-18T05:44:01.539Z,23.24
2023-12-18T05:45:04.767Z,23.23
2023-12-18T05:46:08.206Z,23.22
2023-12-18T05:47:11.434Z,23.26
2023-12-18T05:48:14.714Z,23.24
2023-12-18T05:49:18.756Z,23.24
2023-12-18T05:50:22.261Z,23.24
2023-12-18T05:51:25.724Z,23.23
2023-12-18T05:52:29.181Z,23.24
2023-12-18T05:53:32.462Z,23.19
2023-12-18T05:54:35.730Z,23.21
2023-12-18T05:55:39.240Z,23.22
2023-12-18T05:56:42.534Z,23.26
2023-12-18T05:57:47.513Z,23.27
2023-12-18T05:58:50.877Z,23.28
2023-12-18T05:59:54.163Z,23.29
2023-12-18T06:01:00.975Z,23.28
2023-12-18T06:02:06.419Z,23.34
2023-12-18T06:03:09.679Z,23.36
2023-12-18T06:04:13.199Z,23.34
2023-12-18T06:05:16.914Z,23.34
2023-12-18T06:06:20.284Z,23.34
2023-12-18T06:07:23.866Z,23.35
2023-12-18T06:08:27.082Z,23.34
2023-12-18T06:09:30.336Z,23.32
2023-12-18T06:10:33.827Z,23.35
2023-12-18T06:11:37.162Z,23.36
2023-12-18T06:12:40.640Z,23.38
2023-12-18T06:13:46.597Z,23.4
2023-12-18T06:14:49.783Z,23.39
2023-12-18T06:15:53.152Z,23.4
2023-12-18T06:16:56.641Z,23.39
2023-12-18T06:18:01.516Z,23.37
2023-12-18T06:19:05.155Z,23.4
2023-12-18T06:20:08.751Z,23.29
2023-12-18T06:21:12.014Z,23.28
2023-12-18T06:22:15.410Z,23.24
2023-12-18T06:23:18.634Z,23.18
2023-12-18T06:24:21.965Z,23.17
2023-12-18T06:25:25.224Z,23.13
2023-12-18T06:26:28.622Z,23.05
2023-12-18T06:27:31.960Z,23
2023-12-18T06:28:35.408Z,22.96
2023-12-18T06:29:38.713Z,22.88
2023-12-18T06:30:41.997Z,22.86
2023-12-18T06:31:45.639Z,22.79
2023-12-18T06:32:49.680Z,22.75
2023-12-18T06:33:53.893Z,22.71
2023-12-18T06:34:57.494Z,22.69
2023-12-18T06:36:01.117Z,22.67
2023-12-18T06:37:04.520Z,22.65
2023-12-18T06:38:07.824Z,22.55
2023-12-18T06:39:10.875Z,22.56
2023-12-18T06:40:14.103Z,22.54
2023-12-18T06:41:17.438Z,22.62
2023-12-18T06:42:20.775Z,22.55
2023-12-18T06:43:24.178Z,22.49
2023-12-18T06:44:27.533Z,22.5
2023-12-18T06:45:32.321Z,22.45
2023-12-18T06:46:35.770Z,22.42
2023-12-18T06:47:39.066Z,22.49
2023-12-18T06:48:42.679Z,22.45
2023-12-18T06:49:47.028Z,22.49
2023-12-18T06:50:50.610Z,22.45
2023-12-18T06:51:53.921Z,22.4
2023-12-18T06:52:57.358Z,22.38
2023-12-18T06:54:00.724Z,22.37
2023-12-18T06:55:04.090Z,22.34
2023-12-18T06:56:08.844Z,22.23
2023-12-18T06:57:13.604Z,22.29
2023-12-18T06:58:17.111Z,22.4
2023-12-18T06:59:20.384Z,22.25
2023-12-18T07:00:34.902Z,22.21
2023-12-18T07:01:36.642Z,22.27
2023-12-18T07:02:41.783Z,22.25
2023-12-18T07:03:45.897Z,22.18
2023-12-18T07:04:49.543Z,22.18
2023-12-18T07:05:53.046Z,22.19
2023-12-18T07:06:56.315Z,22.21
2023-12-18T07:07:59.662Z,22.15
2023-12-18T07:09:04.427Z,22.18
2023-12-18T07:10:08.028Z,22.22
2023-12-18T07:11:11.269Z,22.21
2023-12-18T07:12:14.512Z,22.18
2023-12-18T07:13:19.528Z,22.18
2023-12-18T07:14:22.791Z,22.21
2023-12-18T07:15:26.298Z,22.29
2023-12-18T07:16:30.448Z,22.22
2023-12-18T07:17:35.278Z,22.19
2023-12-18T07:18:38.803Z,22.13
2023-12-18T07:19:42.416Z,22.15
2023-12-18T07:20:45.709Z,22.17
2023-12-18T07:21:50.051Z,22.15
2023-12-18T07:22:55.234Z,22.13
2023-12-18T07:23:58.538Z,22.09
2023-12-18T07:25:01.812Z,22.12
2023-12-18T07:26:05.015Z,22.08
2023-12-18T07:27:08.306Z,22.11
2023-12-18T07:28:11.596Z,22.14
2023-12-18T07:29:14.856Z,22.14
2023-12-18T07:30:18.271Z,22.11
2023-12-18T07:31:21.939Z,22.11
2023-12-18T07:32:25.257Z,22.07
2023-12-18T07:33:28.525Z,22.11
2023-12-18T07:34:32.249Z,22.08
2023-12-18T07:35:35.955Z,22.07
2023-12-18T07:36:39.239Z,22.03
2023-12-18T07:37:42.577Z,22.01
2023-12-18T07:38:47.409Z,22.03
2023-12-18T07:39:52.866Z,22.05
2023-12-18T07:40:56.241Z,22.04
2023-12-18T07:41:59.522Z,22.05
2023-12-18T07:43:02.748Z,22.02
2023-12-18T07:44:06.118Z,22.01
2023-12-18T07:45:09.387Z,22.02
2023-12-18T07:46:12.626Z,21.93
2023-12-18T07:47:15.934Z,21.97
2023-12-18T07:48:19.252Z,21.87
2023-12-18T07:49:23.137Z,21.89
2023-12-18T07:50:26.607Z,21.86
2023-12-18T07:51:29.940Z,21.86
2023-12-18T07:52:33.286Z,21.79
2023-12-18T07:53:36.536Z,21.78
2023-12-18T07:54:39.945Z,21.8
2023-12-18T07:55:43.471Z,21.81
2023-12-18T07:56:48.226Z,21.79
2023-12-18T07:57:51.455Z,21.81
2023-12-18T07:58:54.862Z,21.85
2023-12-18T07:59:58.192Z,21.87
2023-12-18T08:01:03.068Z,21.92
2023-12-18T08:02:06.633Z,21.89
2023-12-18T08:03:09.969Z,21.99
2023-12-18T08:04:13.274Z,21.89
2023-12-18T08:05:17.014Z,21.9
2023-12-18T08:06:20.372Z,21.93
2023-12-18T08:07:23.687Z,21.84
2023-12-18T08:08:26.893Z,21.89
2023-12-18T08:09:30.656Z,21.94
2023-12-18T08:10:34.360Z,21.81
2023-12-18T08:11:39.273Z,21.89
2023-12-18T08:12:42.987Z,21.87
2023-12-18T08:13:47.174Z,21.87
2023-12-18T08:14:50.487Z,21.86
2023-12-18T08:15:53.731Z,21.78
2023-12-18T08:16:56.939Z,21.73
2023-12-18T08:18:00.381Z,21.79
2023-12-18T08:19:04.069Z,21.72
2023-12-18T08:20:08.009Z,21.74
2023-12-18T08:21:12.709Z,21.71
2023-12-18T08:22:16.062Z,21.74
2023-12-18T08:23:19.363Z,21.72
2023-12-18T08:24:22.642Z,21.71
2023-12-18T08:25:25.958Z,21.75
2023-12-18T08:26:30.075Z,21.83
2023-12-18T08:27:33.453Z,21.81
2023-12-18T08:28:37.118Z,21.82
2023-12-18T08:29:44.975Z,21.75
2023-12-18T08:30:48.231Z,21.78
2023-12-18T08:31:51.790Z,21.78
2023-12-18T08:32:55.173Z,21.74
2023-12-18T08:34:00.141Z,21.71
2023-12-18T08:35:03.938Z,21.76
2023-12-18T08:36:07.322Z,21.73
2023-12-18T08:37:10.575Z,21.73
2023-12-18T08:38:13.874Z,21.76
2023-12-18T08:39:17.111Z,21.69
2023-12-18T08:40:20.570Z,21.76
2023-12-18T08:41:23.811Z,21.7
2023-12-18T08:42:28.067Z,21.73
2023-12-18T08:43:31.429Z,21.69
2023-12-18T08:44:34.674Z,21.71
2023-12-18T08:45:38.002Z,21.67
2023-12-18T08:46:41.430Z,21.61
2023-12-18T08:47:44.729Z,21.61
2023-12-18T08:48:50.003Z,21.64
2023-12-18T08:49:53.501Z,21.51
2023-12-18T08:50:56.859Z,21.47
2023-12-18T08:52:00.184Z,21.44
2023-12-18T08:53:03.917Z,21.53
2023-12-18T08:54:07.228Z,21.48
2023-12-18T08:55:10.577Z,21.47
2023-12-18T08:56:13.909Z,21.44
2023-12-18T08:57:17.182Z,21.49
2023-12-18T08:58:20.714Z,21.48
2023-12-18T08:59:25.383Z,21.5
2023-12-18T09:00:28.912Z,21.57
2023-12-18T09:01:32.629Z,21.54
2023-12-18T09:02:36.155Z,21.57
2023-12-18T09:03:39.570Z,21.6
2023-12-18T09:04:43.147Z,21.66
2023-12-18T09:05:48.099Z,21.68
2023-12-18T09:06:51.418Z,21.69
2023-12-18T09:07:54.808Z,21.7
2023-12-18T09:08:58.084Z,21.72
2023-12-18T09:10:01.368Z,21.76
2023-12-18T09:11:04.774Z,21.83
2023-12-18T09:12:08.126Z,21.85
2023-12-18T09:13:11.662Z,21.86
2023-12-18T09:14:14.935Z,21.89
2023-12-18T09:15:18.382Z,21.95
2023-12-18T09:16:21.790Z,21.94
2023-12-18T09:17:25.071Z,21.97
2023-12-18T09:18:28.428Z,21.99
2023-12-18T09:19:32.301Z,22.02
2023-12-18T09:20:36.094Z,22.08
2023-12-18T09:21:39.405Z,22.14
2023-12-18T09:22:42.884Z,22.13
2023-12-18T09:23:47.038Z,22.17
2023-12-18T09:24:50.341Z,22.2
2023-12-18T09:25:53.810Z,22.25
2023-12-18T09:26:57.058Z,22.25
2023-12-18T09:28:00.398Z,22.3
2023-12-18T09:29:03.789Z,22.32
2023-12-18T09:30:08.368Z,22.37
2023-12-18T09:31:14.739Z,22.44
2023-12-18T09:32:18.352Z,22.47
2023-12-18T09:33:21.967Z,22.49
2023-12-18T09:34:25.597Z,22.56
2023-12-18T09:35:30.623Z,22.59
2023-12-18T09:36:33.891Z,22.63
2023-12-18T09:37:37.382Z,22.65
2023-12-18T09:38:40.693Z,22.7
2023-12-18T09:39:44.297Z,22.69
2023-12-18T09:40:47.871Z,22.7
2023-12-18T09:41:51.065Z,22.78
2023-12-18T09:42:54.371Z,22.78
2023-12-18T09:43:58.051Z,22.9
2023-12-18T09:45:01.353Z,22.91
2023-12-18T09:46:07.205Z,22.79
2023-12-18T09:47:10.552Z,22.81
2023-12-18T09:48:15.135Z,22.78
2023-12-18T09:49:23.255Z,22.87
2023-12-18T09:50:28.102Z,22.95
2023-12-18T09:51:31.515Z,22.91
2023-12-18T09:52:34.926Z,22.94
2023-12-18T09:53:38.147Z,22.93
2023-12-18T09:54:41.411Z,22.97
2023-12-18T09:55:44.740Z,22.81
2023-12-18T09:56:48.033Z,22.93
2023-12-18T09:57:51.372Z,22.98
2023-12-18T09:58:54.788Z,23.03
2023-12-18T09:59:58.107Z,23.02
2023-12-18T10:01:02.977Z,23.07
2023-12-18T10:02:06.415Z,23.17
2023-12-18T10:03:09.873Z,23.19
2023-12-18T10:04:13.769Z,23.02
2023-12-18T10:05:17.260Z,23.08
2023-12-18T10:06:20.710Z,23.16
2023-12-18T10:07:24.064Z,23.16
2023-12-18T10:08:27.372Z,23.13
2023-12-18T10:09:30.583Z,23.19
2023-12-18T10:10:34.020Z,23.26
2023-12-18T10:11:38.899Z,23.23
2023-12-18T10:12:42.379Z,23.24
2023-12-18T10:13:47.902Z,23.29
2023-12-18T10:14:51.156Z,23.33
2023-12-18T10:15:54.440Z,23.37
2023-12-18T10:16:57.926Z,23.44
2023-12-18T10:18:01.239Z,23.45
2023-12-18T10:19:04.797Z,23.49
2023-12-18T10:20:08.582Z,23.49
2023-12-18T10:21:12.194Z,23.47
2023-12-18T10:22:15.566Z,23.5
2023-12-18T10:23:18.881Z,23.52
2023-12-18T10:24:22.202Z,23.5
2023-12-18T10:25:25.467Z,23.54
2023-12-18T10:26:33.678Z,23.62
2023-12-18T10:27:36.892Z,23.62
2023-12-18T10:28:40.165Z,23.65
2023-12-18T10:29:43.509Z,23.58
2023-12-18T10:30:48.354Z,23.6
2023-12-18T10:31:51.973Z,23.57
2023-12-18T10:32:57.022Z,23.62
2023-12-18T10:34:00.555Z,23.68
2023-12-18T10:35:04.363Z,23.7
2023-12-18T10:36:07.752Z,23.72
2023-12-18T10:37:11.007Z,23.72
2023-12-18T10:38:14.419Z,23.75
2023-12-18T10:39:17.720Z,23.74
2023-12-18T10:40:20.952Z,23.72
2023-12-18T10:41:24.102Z,23.72
2023-12-18T10:42:27.415Z,23.75
2023-12-18T10:43:30.807Z,23.72
2023-12-18T10:44:34.138Z,23.78
2023-12-18T10:45:38.445Z,23.73
2023-12-18T10:46:43.510Z,24.04
2023-12-18T10:47:46.767Z,23.87
2023-12-18T10:48:50.144Z,23.76
2023-12-18T10:49:59.545Z,23.76
2023-12-18T10:51:03.917Z,23.85
2023-12-18T10:52:07.179Z,23.86
2023-12-18T10:53:10.450Z,23.84
2023-12-18T10:54:13.691Z,23.78
2023-12-18T10:55:17.085Z,23.79
2023-12-18T10:56:20.433Z,23.78
2023-12-18T10:57:23.703Z,23.79
2023-12-18T10:58:28.426Z,23.78
2023-12-18T10:59:31.717Z,23.78
2023-12-18T11:00:35.064Z,23.76
2023-12-18T11:01:40.067Z,23.77
2023-12-18T11:02:44.971Z,23.79
2023-12-18T11:03:48.375Z,23.79
2023-12-18T11:04:52.138Z,23.82
2023-12-18T11:05:55.597Z,23.86
2023-12-18T11:07:00.521Z,23.85
2023-12-18T11:08:05.298Z,23.88
2023-12-18T11:09:08.634Z,23.88
2023-12-18T11:10:13.104Z,23.88
2023-12-18T11:11:16.745Z,23.94
2023-12-18T11:12:20.085Z,23.91
2023-12-18T11:13:23.322Z,23.86
2023-12-18T11:14:26.692Z,23.89
2023-12-18T11:15:30.065Z,23.94
2023-12-18T11:16:33.617Z,23.96
2023-12-18T11:17:36.969Z,23.93
2023-12-18T11:18:40.817Z,23.8
2023-12-18T11:19:44.730Z,23.87
2023-12-18T11:20:48.549Z,23.87
2023-12-18T11:21:51.904Z,23.88
2023-12-18T11:22:55.382Z,23.94
2023-12-18T11:24:04.292Z,23.95
2023-12-18T11:25:12.744Z,24.02
2023-12-18T11:26:17.621Z,23.95
2023-12-18T11:27:20.848Z,23.88
2023-12-18T11:28:24.156Z,23.85
2023-12-18T11:29:28.886Z,23.9
2023-12-18T11:30:32.220Z,24
2023-12-18T11:31:35.911Z,24
2023-12-18T11:32:39.588Z,23.98
2023-12-18T11:33:46.046Z,24
2023-12-18T11:34:58.359Z,24.06
2023-12-18T11:36:01.846Z,24.11
2023-12-18T11:37:05.135Z,24.02
2023-12-18T11:38:08.552Z,23.86
2023-12-18T11:39:11.848Z,23.89
2023-12-18T11:40:16.659Z,23.83
2023-12-18T11:41:19.887Z,23.82
2023-12-18T11:42:23.194Z,23.81
2023-12-18T11:43:26.422Z,23.77
2023-12-18T11:44:31.181Z,23.87
2023-12-18T11:45:37.507Z,23.91
2023-12-18T11:46:40.907Z,23.91
2023-12-18T11:47:44.178Z,23.85
2023-12-18T11:48:48.084Z,23.73
2023-12-18T11:49:52.090Z,23.81
2023-12-18T11:50:55.904Z,23.87
2023-12-18T11:51:59.454Z,23.83
2023-12-18T11:53:02.811Z,23.89
2023-12-18T11:54:06.189Z,23.88
2023-12-18T11:55:09.491Z,23.89
2023-12-18T11:56:12.732Z,23.92
2023-12-18T11:57:16.461Z,23.98
2023-12-18T11:58:19.909Z,24.05
2023-12-18T11:59:23.203Z,24
2023-12-18T12:00:26.669Z,23.98
2023-12-18T12:01:29.981Z,24
2023-12-18T12:02:34.625Z,23.99
2023-12-18T12:04:44.000Z,24.02
2023-12-18T12:05:47.490Z,24.07
2023-12-18T12:06:50.782Z,24.09
2023-12-18T12:07:56.233Z,24
2023-12-18T12:08:59.529Z,24.01
2023-12-18T12:10:02.918Z,24.01
2023-12-18T12:11:06.396Z,23.91
2023-12-18T12:12:09.652Z,23.95
2023-12-18T12:13:12.883Z,23.95
2023-12-18T12:14:16.124Z,23.98
2023-12-18T12:15:19.543Z,23.9
2023-12-18T12:16:22.916Z,23.94
2023-12-18T12:17:26.652Z,23.99
2023-12-18T12:18:30.212Z,24.05
2023-12-18T12:19:34.320Z,24.09
2023-12-18T12:20:38.432Z,23.95
2023-12-18T12:21:43.160Z,23.75
2023-12-18T12:22:51.550Z,23.81
2023-12-18T12:23:54.797Z,23.8
2023-12-18T12:24:59.565Z,23.87
2023-12-18T12:26:03.376Z,23.97
2023-12-18T12:27:06.733Z,24.03
2023-12-18T12:28:09.992Z,24.02
2023-12-18T12:29:13.342Z,24.03
2023-12-18T12:30:16.802Z,24.03
2023-12-18T12:31:20.440Z,23.93
2023-12-18T12:32:25.628Z,23.99
2023-12-18T12:33:29.672Z,24.03
2023-12-18T12:34:34.961Z,24.04
2023-12-18T12:35:38.371Z,24.07
2023-12-18T12:36:41.713Z,24.07
2023-12-18T12:37:46.605Z,24.07
2023-12-18T12:38:49.836Z,24.06
2023-12-18T12:39:53.222Z,24.02
2023-12-18T12:40:58.163Z,24
2023-12-18T12:42:01.473Z,23.87
2023-12-18T12:43:04.780Z,23.83
2023-12-18T12:44:08.062Z,23.89
2023-12-18T12:45:11.351Z,23.9
2023-12-18T12:46:15.667Z,23.81
2023-12-18T12:47:27.698Z,23.92
2023-12-18T12:48:32.700Z,23.89
2023-12-18T12:49:40.219Z,24.01
2023-12-18T12:50:43.719Z,24.02
2023-12-18T12:51:46.955Z,23.85
2023-12-18T12:52:50.407Z,23.77
2023-12-18T12:53:53.775Z,23.84
2023-12-18T12:54:57.142Z,23.85
2023-12-18T12:56:00.568Z,23.74
2023-12-18T12:57:04.080Z,23.74
2023-12-18T12:58:07.320Z,23.8
2023-12-18T12:59:12.627Z,23.79
2023-12-18T13:00:15.826Z,23.87
2023-12-18T13:01:19.271Z,23.83
2023-12-18T13:02:22.676Z,23.85
2023-12-18T13:03:25.962Z,23.84
2023-12-18T13:04:29.774Z,23.78
2023-12-18T13:05:33.669Z,23.77
2023-12-18T13:06:37.143Z,23.72
2023-12-18T13:07:42.476Z,23.68
2023-12-18T13:08:46.607Z,23.72
2023-12-18T13:09:49.905Z,23.71
2023-12-18T13:10:53.408Z,23.63
2023-12-18T13:11:56.696Z,23.63
2023-12-18T13:13:00.141Z,23.71
2023-12-18T13:14:08.101Z,23.68
2023-12-18T13:15:16.465Z,23.73
2023-12-18T13:16:19.989Z,23.72
2023-12-18T13:17:23.358Z,23.71
2023-12-18T13:18:28.766Z,23.64
2023-12-18T13:19:33.007Z,23.69
2023-12-18T13:20:36.696Z,23.66
2023-12-18T13:21:40.663Z,23.71
2023-12-18T13:22:45.266Z,23.64
2023-12-18T13:23:48.472Z,23.59
2023-12-18T13:24:51.963Z,23.63
2023-12-18T13:25:55.524Z,23.65
2023-12-18T13:26:58.838Z,23.66
2023-12-18T13:28:02.266Z,23.61
2023-12-18T13:29:07.250Z,23.74
2023-12-18T13:30:10.456Z,23.77
2023-12-18T13:31:13.876Z,23.71
2023-12-18T13:32:17.564Z,23.62
2023-12-18T13:33:21.067Z,23.61
2023-12-18T13:34:24.509Z,23.66
2023-12-18T13:35:28.217Z,23.63
2023-12-18T13:36:31.619Z,23.54
2023-12-18T13:37:35.186Z,23.62
2023-12-18T13:38:38.415Z,23.58
2023-12-18T13:39:41.719Z,23.59
2023-12-18T13:40:45.159Z,23.61
2023-12-18T13:41:48.415Z,23.59
2023-12-18T13:42:51.853Z,23.57
2023-12-18T13:43:55.561Z,23.58
2023-12-18T13:44:58.817Z,23.53